createdAt,value
2018-11-26T00:01:26.916Z,35.03
2018-11-26T00:03:55.453Z,36.23
2018-11-26T00:06:24.078Z,34.63
2018-11-26T00:08:52.631Z,35.50
2018-11-26T00:11:31.093Z,35.53
2018-11-26T00:13:59.672Z,31.17
2018-11-26T00:16:28.360Z,36.43
2018-11-26T00:18:56.843Z,33.83
2018-11-26T00:21:25.422Z,35.23
2018-11-26T00:23:54.020Z,35.03
2018-11-26T00:26:22.744Z,36.43
2018-11-26T00:28:51.392Z,35.43
2018-11-26T00:31:20.739Z,33.83
2018-11-26T00:33:49.354Z,36.57
2018-11-26T00:36:18.018Z,35.73
2018-11-26T00:38:46.599Z,35.30
2018-11-26T00:41:15.801Z,36.27
2018-11-26T00:43:44.357Z,36.03
2018-11-26T00:46:13.044Z,34.90
2018-11-26T00:48:41.627Z,34.93
2018-11-26T00:51:10.334Z,34.17
2018-11-26T00:53:38.934Z,33.47
2018-11-26T00:56:07.564Z,33.73
2018-11-26T00:58:36.165Z,34.07
2018-11-26T01:01:04.762Z,34.73
2018-11-26T01:03:33.366Z,33.67
2018-11-26T01:06:02.027Z,34.90
2018-11-26T01:08:30.718Z,34.43
2018-11-26T01:10:59.303Z,32.00
2018-11-26T01:13:28.004Z,34.40
2018-11-26T01:15:57.491Z,33.63
2018-11-26T01:18:26.391Z,29.90
2018-11-26T01:20:55.120Z,32.80
2018-11-26T01:23:23.794Z,32.93
2018-11-26T01:25:52.445Z,32.40
2018-11-26T01:28:21.085Z,32.83
2018-11-26T01:30:56.458Z,31.60
2018-11-26T01:33:25.044Z,32.60
2018-11-26T01:35:53.649Z,31.87
2018-11-26T01:38:22.240Z,30.13
2018-11-26T01:40:52.350Z,30.67
2018-11-26T01:43:21.537Z,31.73
2018-11-26T01:45:50.090Z,31.87
2018-11-26T01:48:18.679Z,30.67
2018-11-26T01:50:47.334Z,32.47
2018-11-26T01:53:15.966Z,32.57
2018-11-26T01:55:44.645Z,32.00
2018-11-26T01:58:13.232Z,32.23
2018-11-26T02:00:41.800Z,32.23
2018-11-26T02:03:10.313Z,31.80
2018-11-26T02:05:38.911Z,31.20
2018-11-26T02:08:07.664Z,32.37
2018-11-26T02:10:36.240Z,29.30
2018-11-26T02:13:04.901Z,31.47
2018-11-26T02:15:41.982Z,31.63
2018-11-26T02:18:11.024Z,30.37
2018-11-26T02:20:39.635Z,31.23
2018-11-26T02:23:08.490Z,29.97
2018-11-26T02:25:37.193Z,29.83
2018-11-26T02:28:06.175Z,30.17
2018-11-26T02:30:34.855Z,32.47
2018-11-26T02:33:03.428Z,29.27
2018-11-26T02:35:32.106Z,29.83
2018-11-26T02:38:00.689Z,30.07
2018-11-26T02:40:30.317Z,30.30
2018-11-26T02:42:59.055Z,29.33
2018-11-26T02:45:28.740Z,30.50
2018-11-26T02:47:57.529Z,28.90
2018-11-26T02:50:26.099Z,28.87
2018-11-26T02:52:54.669Z,30.73
2018-11-26T02:55:23.353Z,30.53
2018-11-26T02:57:52.108Z,29.73
2018-11-26T03:00:20.706Z,29.60
2018-11-26T03:02:49.741Z,28.33
2018-11-26T03:05:27.924Z,28.77
2018-11-26T03:07:56.525Z,28.63
2018-11-26T03:10:25.127Z,29.10
2018-11-26T03:12:53.666Z,30.07
2018-11-26T03:15:22.348Z,28.63
2018-11-26T03:17:51.077Z,29.07
2018-11-26T03:20:19.607Z,29.50
2018-11-26T03:22:48.862Z,28.93
2018-11-26T03:25:17.489Z,28.00
2018-11-26T03:27:45.997Z,30.17
2018-11-26T03:30:22.078Z,30.90
2018-11-26T03:32:50.660Z,28.20
2018-11-26T03:35:19.419Z,29.50
2018-11-26T03:37:47.940Z,28.87
2018-11-26T03:40:16.437Z,29.23
2018-11-26T03:42:45.053Z,28.30
2018-11-26T03:45:15.627Z,28.87
2018-11-26T03:47:44.193Z,30.93
2018-11-26T03:50:13.498Z,28.50
2018-11-26T03:52:43.290Z,30.07
2018-11-26T03:55:12.268Z,28.27
2018-11-26T03:57:40.838Z,30.13
2018-11-26T04:00:13.334Z,29.20
2018-11-26T04:02:41.948Z,28.37
2018-11-26T04:05:11.035Z,29.40
2018-11-26T04:07:39.688Z,30.37
2018-11-26T04:10:10.219Z,29.83
2018-11-26T04:12:38.771Z,29.73
2018-11-26T04:15:09.489Z,29.67
2018-11-26T04:17:38.438Z,30.30
2018-11-26T04:20:08.891Z,31.00
2018-11-26T04:22:37.397Z,28.17
2018-11-26T04:25:07.069Z,29.97
2018-11-26T04:27:35.664Z,31.77
2018-11-26T04:30:04.378Z,31.20
2018-11-26T04:32:33.310Z,31.87
2018-11-26T04:35:01.865Z,29.57
2018-11-26T04:37:30.397Z,31.07
2018-11-26T04:39:58.876Z,31.13
2018-11-26T04:42:27.556Z,29.63
2018-11-26T04:44:57.182Z,32.30
2018-11-26T04:47:25.704Z,31.53
2018-11-26T04:49:54.376Z,31.37
2018-11-26T04:52:22.919Z,31.53
2018-11-26T04:54:51.687Z,31.70
2018-11-26T04:57:20.363Z,31.80
2018-11-26T04:59:48.908Z,32.30
2018-11-26T05:02:17.454Z,30.27
2018-11-26T05:04:46.177Z,28.03
2018-11-26T05:07:14.733Z,31.20
2018-11-26T05:09:43.279Z,32.50
2018-11-26T05:12:11.889Z,31.40
2018-11-26T05:14:40.727Z,30.70
2018-11-26T05:17:09.241Z,31.33
2018-11-26T05:19:37.837Z,27.63
2018-11-26T05:22:06.467Z,31.00
2018-11-26T05:24:35.047Z,32.07
2018-11-26T05:27:03.718Z,30.03
2018-11-26T05:29:32.315Z,30.13
2018-11-26T05:32:00.861Z,31.20
2018-11-26T05:34:29.673Z,31.60
2018-11-26T05:36:58.151Z,30.80
2018-11-26T05:39:27.623Z,31.73
2018-11-26T05:41:56.186Z,33.60
2018-11-26T05:44:24.897Z,28.47
2018-11-26T05:46:53.528Z,31.10
2018-11-26T05:49:22.913Z,30.50
2018-11-26T05:51:50.903Z,31.00
2018-11-26T05:54:19.703Z,29.00
2018-11-26T05:56:48.434Z,29.13
2018-11-26T05:59:16.974Z,30.83
2018-11-26T06:01:45.632Z,30.00
2018-11-26T06:04:14.216Z,30.30
2018-11-26T06:06:42.800Z,30.57
2018-11-26T06:09:11.737Z,30.10
2018-11-26T06:11:40.756Z,30.33
2018-11-26T06:14:09.288Z,29.53
2018-11-26T06:16:37.892Z,30.23
2018-11-26T06:19:06.595Z,31.60
2018-11-26T06:21:35.305Z,34.50
2018-11-26T06:24:03.833Z,31.77
2018-11-26T06:26:32.403Z,31.57
2018-11-26T06:29:01.055Z,29.37
2018-11-26T06:31:30.426Z,29.33
2018-11-26T06:33:59.063Z,32.43
2018-11-26T06:36:27.679Z,30.43
2018-11-26T06:38:56.291Z,31.47
2018-11-26T06:41:24.914Z,30.07
2018-11-26T06:43:53.441Z,30.33
2018-11-26T06:46:22.173Z,28.53
2018-11-26T06:48:50.825Z,29.07
2018-11-26T06:51:19.464Z,29.77
2018-11-26T06:53:48.001Z,30.97
2018-11-26T06:56:16.694Z,28.60
2018-11-26T06:58:45.491Z,30.10
2018-11-26T07:01:14.374Z,30.57
2018-11-26T07:03:43.076Z,30.67
2018-11-26T07:06:11.667Z,29.80
2018-11-26T07:08:40.483Z,29.17
2018-11-26T07:11:09.175Z,30.83
2018-11-26T07:13:37.826Z,29.57
2018-11-26T07:16:06.518Z,29.53
2018-11-26T07:18:35.340Z,28.87
2018-11-26T07:21:04.015Z,30.00
2018-11-26T07:23:32.768Z,28.87
2018-11-26T07:26:01.458Z,30.87
2018-11-26T07:28:30.107Z,30.03
2018-11-26T07:30:58.670Z,29.40
2018-11-26T07:33:27.621Z,30.03
2018-11-26T07:35:56.476Z,27.50
2018-11-26T07:38:25.172Z,28.60
2018-11-26T07:40:53.900Z,29.70
2018-11-26T07:43:22.714Z,28.80
2018-11-26T07:45:51.533Z,27.47
2018-11-26T07:48:20.133Z,28.93
2018-11-26T07:50:48.815Z,29.10
2018-11-26T07:53:17.472Z,27.03
2018-11-26T07:55:46.130Z,27.70
2018-11-26T07:58:14.718Z,29.37
2018-11-26T08:00:43.455Z,29.97
2018-11-26T08:03:12.252Z,30.00
2018-11-26T08:05:41.494Z,29.97
2018-11-26T08:08:10.154Z,29.60
2018-11-26T08:10:38.887Z,29.07
2018-11-26T08:13:07.645Z,29.90
2018-11-26T08:15:36.369Z,30.73
2018-11-26T08:18:04.957Z,28.83
2018-11-26T08:20:33.758Z,28.80
2018-11-26T08:23:02.536Z,28.33
2018-11-26T08:25:31.268Z,27.77
2018-11-26T08:28:00.090Z,29.10
2018-11-26T08:30:28.991Z,28.67
2018-11-26T08:32:59.903Z,28.80
2018-11-26T08:35:29.642Z,29.30
2018-11-26T08:38:03.688Z,29.10
2018-11-26T08:40:37.759Z,31.00
2018-11-26T08:43:07.319Z,31.23
2018-11-26T08:45:38.696Z,31.20
2018-11-26T08:48:12.611Z,29.83
2018-11-26T08:50:41.192Z,29.83
2018-11-26T08:53:09.803Z,31.20
2018-11-26T08:55:38.483Z,30.80
2018-11-26T08:58:07.155Z,31.13
2018-11-26T09:00:35.736Z,30.33
2018-11-26T09:03:10.355Z,30.77
2018-11-26T09:05:45.571Z,31.17
2018-11-26T09:08:14.872Z,31.83
2018-11-26T09:10:43.585Z,31.40
2018-11-26T09:13:12.372Z,30.93
2018-11-26T09:15:41.166Z,31.67
2018-11-26T09:18:09.880Z,33.20
2018-11-26T09:20:38.534Z,29.77
2018-11-26T09:23:07.181Z,32.10
2018-11-26T09:25:35.873Z,32.30
2018-11-26T09:28:04.513Z,32.87
2018-11-26T09:30:33.141Z,32.53
2018-11-26T09:33:01.759Z,31.67
2018-11-26T09:35:30.516Z,33.47
2018-11-26T09:37:59.226Z,29.87
2018-11-26T09:40:27.884Z,32.30
2018-11-26T09:42:56.615Z,32.03
2018-11-26T09:45:25.390Z,32.17
2018-11-26T09:47:53.969Z,30.97
2018-11-26T09:50:23.328Z,31.67
2018-11-26T09:52:52.667Z,32.23
2018-11-26T09:55:21.367Z,34.47
2018-11-26T09:57:49.963Z,32.73
2018-11-26T10:00:19.729Z,29.80
2018-11-26T10:02:49.562Z,32.77
2018-11-26T10:05:25.683Z,32.80
2018-11-26T10:07:54.322Z,34.73
2018-11-26T10:10:22.964Z,32.90
2018-11-26T10:12:51.642Z,31.90
2018-11-26T10:15:23.325Z,33.40
2018-11-26T10:17:52.025Z,34.03
2018-11-26T10:20:21.688Z,33.87
2018-11-26T10:22:51.697Z,32.83
2018-11-26T10:25:21.268Z,30.93
2018-11-26T10:27:50.009Z,32.43
2018-11-26T10:30:21.049Z,34.33
2018-11-26T10:32:50.777Z,32.67
2018-11-26T10:35:20.940Z,34.97
2018-11-26T10:37:49.642Z,32.23
2018-11-26T10:40:20.604Z,34.80
2018-11-26T10:42:49.184Z,31.73
2018-11-26T10:45:18.976Z,32.53
2018-11-26T10:47:47.620Z,33.07
2018-11-26T10:50:19.937Z,32.77
2018-11-26T10:52:51.547Z,32.73
2018-11-26T10:55:22.686Z,31.67
2018-11-26T10:57:51.339Z,33.57
2018-11-26T11:00:25.149Z,31.97
2018-11-26T11:02:54.054Z,32.53
2018-11-26T11:05:22.786Z,31.03
2018-11-26T11:07:51.330Z,34.33
2018-11-26T11:10:22.881Z,30.00
2018-11-26T11:12:51.661Z,28.80
2018-11-26T11:15:20.492Z,30.23
2018-11-26T11:17:49.272Z,31.50
2018-11-26T11:20:20.181Z,31.70
2018-11-26T11:22:48.851Z,28.97
2018-11-26T11:25:18.349Z,29.47
2018-11-26T11:27:47.099Z,31.13
2018-11-26T11:30:16.832Z,28.73
2018-11-26T11:32:45.863Z,30.13
2018-11-26T11:35:15.242Z,30.23
2018-11-26T11:37:44.648Z,30.70
2018-11-26T11:40:15.637Z,30.77
2018-11-26T11:42:44.291Z,31.83
2018-11-26T11:45:13.494Z,29.53
2018-11-26T11:47:43.187Z,29.10
2018-11-26T11:50:13.601Z,29.67
2018-11-26T11:52:42.185Z,28.50
2018-11-26T11:55:14.685Z,28.77
2018-11-26T11:57:43.266Z,29.60
2018-11-26T12:00:18.842Z,28.20
2018-11-26T12:02:47.514Z,28.53
2018-11-26T12:05:16.345Z,29.63
2018-11-26T12:07:44.970Z,27.57
2018-11-26T12:10:14.352Z,27.73
2018-11-26T12:12:42.894Z,27.90
2018-11-26T12:15:13.854Z,28.73
2018-11-26T12:17:43.011Z,27.87
2018-11-26T12:20:12.831Z,27.07
2018-11-26T12:22:41.610Z,27.67
2018-11-26T12:25:13.500Z,27.17
2018-11-26T12:27:42.205Z,28.13
2018-11-26T12:30:15.151Z,27.27
2018-11-26T12:32:43.927Z,28.00
2018-11-26T12:35:12.755Z,28.87
2018-11-26T12:37:41.640Z,27.00
2018-11-26T12:40:12.458Z,28.47
2018-11-26T12:42:41.210Z,28.70
2018-11-26T12:45:29.438Z,27.07
2018-11-26T12:47:58.324Z,27.33
2018-11-26T12:50:27.374Z,25.80
2018-11-26T12:52:56.156Z,26.70
2018-11-26T12:55:25.329Z,27.40
2018-11-26T12:57:55.261Z,27.57
2018-11-26T13:00:25.885Z,27.53
2018-11-26T13:02:55.896Z,25.57
2018-11-26T13:05:24.458Z,27.60
2018-11-26T13:07:53.212Z,25.27
2018-11-26T13:10:22.813Z,27.10
2018-11-26T13:12:52.407Z,26.43
2018-11-26T13:15:22.196Z,26.87
2018-11-26T13:17:50.873Z,28.07
2018-11-26T13:20:23.095Z,26.77
2018-11-26T13:22:52.155Z,26.03
2018-11-26T13:25:22.227Z,27.73
2018-11-26T13:27:53.030Z,27.27
2018-11-26T13:30:25.058Z,26.50
2018-11-26T13:32:55.356Z,26.10
2018-11-26T13:35:24.094Z,25.30
2018-11-26T13:37:52.574Z,26.47
2018-11-26T13:40:21.546Z,24.73
2018-11-26T13:42:50.755Z,25.50
2018-11-26T13:45:29.976Z,25.50
2018-11-26T13:47:58.576Z,25.73
2018-11-26T13:50:30.646Z,26.60
2018-11-26T13:52:59.321Z,25.57
2018-11-26T13:55:28.066Z,25.70
2018-11-26T13:57:56.804Z,25.43
2018-11-26T14:00:25.463Z,25.97
2018-11-26T14:02:54.263Z,24.50
2018-11-26T14:05:23.075Z,25.40
2018-11-26T14:07:51.853Z,25.33
2018-11-26T14:10:29.017Z,25.77
2018-11-26T14:13:01.717Z,25.63
2018-11-26T14:15:30.428Z,24.50
2018-11-26T14:17:59.217Z,25.43
2018-11-26T14:20:27.984Z,24.37
2018-11-26T14:22:56.748Z,24.77
2018-11-26T14:25:26.502Z,24.77
2018-11-26T14:27:55.172Z,23.07
2018-11-26T14:30:28.743Z,25.73
2018-11-26T14:32:58.369Z,24.50
2018-11-26T14:35:27.080Z,25.30
2018-11-26T14:38:05.135Z,23.70
2018-11-26T14:40:38.232Z,25.10
2018-11-26T14:43:07.656Z,25.60
2018-11-26T14:45:36.306Z,25.67
2018-11-26T14:48:06.044Z,25.57
2018-11-26T14:50:34.754Z,27.30
2018-11-26T14:53:04.351Z,25.73
2018-11-26T14:55:36.425Z,26.23
2018-11-26T14:58:05.197Z,26.10
2018-11-26T15:00:33.861Z,27.40
2018-11-26T15:03:02.637Z,27.17
2018-11-26T15:05:31.363Z,28.00
2018-11-26T15:07:59.988Z,28.03
2018-11-26T15:10:28.599Z,27.03
2018-11-26T15:12:57.524Z,27.93
2018-11-26T15:15:27.052Z,27.53
2018-11-26T15:17:55.803Z,28.60
2018-11-26T15:20:28.798Z,28.60
2018-11-26T15:22:59.500Z,27.47
2018-11-26T15:25:31.164Z,27.50
2018-11-26T15:28:03.423Z,28.03
2018-11-26T15:30:32.034Z,28.23
2018-11-26T15:33:01.589Z,27.20
2018-11-26T15:35:30.397Z,26.57
2018-11-26T15:37:59.125Z,27.73
2018-11-26T15:40:27.827Z,28.63
2018-11-26T15:42:56.928Z,28.37
2018-11-26T15:45:27.213Z,28.27
2018-11-26T15:47:57.327Z,30.00
2018-11-26T15:50:26.040Z,31.73
2018-11-26T15:52:54.784Z,29.93
2018-11-26T15:55:23.483Z,30.63
2018-11-26T15:57:52.285Z,37.87
2018-11-26T16:00:23.830Z,32.00
2018-11-26T16:02:52.798Z,28.73
2018-11-26T16:05:22.833Z,31.13
2018-11-26T16:07:54.271Z,31.37
2018-11-26T16:10:23.555Z,29.87
2018-11-26T16:12:56.010Z,29.37
2018-11-26T16:15:29.648Z,29.33
2018-11-26T16:17:59.931Z,29.47
2018-11-26T16:20:29.098Z,28.77
2018-11-26T16:22:59.210Z,33.33
2018-11-26T16:25:28.425Z,30.83
2018-11-26T16:28:04.039Z,31.80
2018-11-26T16:30:32.865Z,29.57
2018-11-26T16:33:01.639Z,32.00
2018-11-26T16:35:32.076Z,36.23
2018-11-26T16:38:01.147Z,31.77
2018-11-26T16:40:29.779Z,30.23
2018-11-26T16:42:59.441Z,29.73
2018-11-26T16:45:28.806Z,29.87
2018-11-26T16:47:58.338Z,30.33
2018-11-26T16:50:28.159Z,30.40
2018-11-26T16:52:56.725Z,29.17
2018-11-26T16:55:25.392Z,28.03
2018-11-26T16:57:54.015Z,27.30
2018-11-26T17:00:23.811Z,26.40
2018-11-26T17:02:54.353Z,27.43
2018-11-26T17:05:25.452Z,27.80
2018-11-26T17:07:54.085Z,26.70
2018-11-26T17:10:22.751Z,27.07
2018-11-26T17:12:51.593Z,25.87
2018-11-26T17:15:20.177Z,26.70
2018-11-26T17:17:48.978Z,26.53
2018-11-26T17:20:18.212Z,26.47
2018-11-26T17:22:47.032Z,26.90
2018-11-26T17:25:16.708Z,26.43
2018-11-26T17:27:47.409Z,26.97
2018-11-26T17:30:20.451Z,26.50
2018-11-26T17:33:01.459Z,25.17
2018-11-26T17:35:30.600Z,24.30
2018-11-26T17:37:59.254Z,23.83
2018-11-26T17:40:28.159Z,24.27
2018-11-26T17:42:57.110Z,24.50
2018-11-26T17:45:26.288Z,23.70
2018-11-26T17:47:56.759Z,25.80
2018-11-26T17:50:29.328Z,25.53
2018-11-26T17:52:59.753Z,24.53
2018-11-26T17:55:28.459Z,25.43
2018-11-26T17:57:57.034Z,25.73
2018-11-26T18:00:28.344Z,25.57
2018-11-26T18:02:57.914Z,25.60
2018-11-26T18:05:28.179Z,23.63
2018-11-26T18:08:00.503Z,24.63
2018-11-26T18:10:29.278Z,25.57
2018-11-26T18:12:59.187Z,24.67
2018-11-26T18:15:28.033Z,23.47
2018-11-26T18:17:57.726Z,24.87
2018-11-26T18:20:26.446Z,24.67
2018-11-26T18:22:55.545Z,24.53
2018-11-26T18:25:25.387Z,26.00
2018-11-26T18:28:25.057Z,26.07
2018-11-26T18:30:54.827Z,25.47
2018-11-26T18:33:23.831Z,25.17
2018-11-26T18:35:52.691Z,25.83
2018-11-26T18:38:22.273Z,25.50
2018-11-26T18:40:51.854Z,25.27
2018-11-26T18:43:20.766Z,24.57
2018-11-26T18:45:49.544Z,26.40
2018-11-26T18:48:18.266Z,24.77
2018-11-26T18:50:47.057Z,25.03
2018-11-26T18:53:15.879Z,25.37
2018-11-26T18:55:44.738Z,24.77
2018-11-26T18:58:13.535Z,26.53
2018-11-26T19:00:46.227Z,24.53
2018-11-26T19:03:19.890Z,26.07
2018-11-26T19:05:51.004Z,25.07
2018-11-26T19:08:19.564Z,27.00
2018-11-26T19:10:50.131Z,26.07
2018-11-26T19:13:24.726Z,25.13
2018-11-26T19:15:56.645Z,25.07
2018-11-26T19:18:26.468Z,26.07
2018-11-26T19:20:55.121Z,26.40
2018-11-26T19:23:24.206Z,26.07
2018-11-26T19:25:53.610Z,26.57
2018-11-26T19:28:22.352Z,25.40
2018-11-26T19:30:51.142Z,28.13
2018-11-26T19:33:19.956Z,27.83
2018-11-26T19:35:48.908Z,26.40
2018-11-26T19:38:18.274Z,25.67
2018-11-26T19:40:46.932Z,27.20
2018-11-26T19:43:16.526Z,25.87
2018-11-26T19:45:45.367Z,27.23
2018-11-26T19:48:14.043Z,26.70
2018-11-26T19:50:42.702Z,26.73
2018-11-26T19:53:12.775Z,27.93
2018-11-26T19:55:42.674Z,26.40
2018-11-26T19:58:11.479Z,26.83
2018-11-26T20:00:41.507Z,26.90
2018-11-26T20:03:14.921Z,27.03
2018-11-26T20:05:56.497Z,25.80
2018-11-26T20:08:25.260Z,26.53
2018-11-26T20:10:53.993Z,26.73
2018-11-26T20:13:22.647Z,27.37
2018-11-26T20:15:52.870Z,27.43
2018-11-26T20:18:20.569Z,27.03
2018-11-26T20:20:49.291Z,27.27
2018-11-26T20:23:18.117Z,27.53
2018-11-26T20:25:46.931Z,27.67
2018-11-26T20:28:15.898Z,27.67
2018-11-26T20:30:44.786Z,26.77
2018-11-26T20:33:13.374Z,30.23
2018-11-26T20:35:42.085Z,27.83
2018-11-26T20:38:12.862Z,26.40
2018-11-26T20:40:41.622Z,27.50
2018-11-26T20:43:11.662Z,29.23
2018-11-26T20:45:41.817Z,27.87
2018-11-26T20:48:11.154Z,28.30
2018-11-26T20:50:41.889Z,25.90
2018-11-26T20:53:11.110Z,29.23
2018-11-26T20:55:39.821Z,28.83
2018-11-26T20:58:08.530Z,29.23
2018-11-26T21:00:37.282Z,27.97
2018-11-26T21:03:08.894Z,26.00
2018-11-26T21:05:38.494Z,28.73
2018-11-26T21:08:07.678Z,28.47
2018-11-26T21:10:37.557Z,29.30
2018-11-26T21:13:06.965Z,28.93
2018-11-26T21:15:36.487Z,27.57
2018-11-26T21:18:20.310Z,27.17
2018-11-26T21:20:50.587Z,26.50
2018-11-26T21:23:28.633Z,26.70
2018-11-26T21:25:59.228Z,26.67
2018-11-26T21:28:28.172Z,26.37
2018-11-26T21:30:57.118Z,25.93
2018-11-26T21:33:25.955Z,25.57
2018-11-26T21:35:55.165Z,25.90
2018-11-26T21:38:24.135Z,26.57
2018-11-26T21:40:53.517Z,25.70
2018-11-26T21:43:22.563Z,24.10
2018-11-26T21:46:01.471Z,26.20
2018-11-26T21:48:30.408Z,24.27
2018-11-26T21:51:00.611Z,24.80
2018-11-26T21:53:29.587Z,25.57
2018-11-26T21:55:58.644Z,24.77
2018-11-26T21:58:27.672Z,25.00
2018-11-26T22:00:58.909Z,25.73
2018-11-26T22:03:30.679Z,24.67
2018-11-26T22:05:59.069Z,24.00
2018-11-26T22:08:27.997Z,23.63
2018-11-26T22:10:57.006Z,25.70
2018-11-26T22:13:25.903Z,26.27
2018-11-26T22:15:54.822Z,24.13
2018-11-26T22:18:24.634Z,24.70
2018-11-26T22:20:53.651Z,22.90
2018-11-26T22:23:22.754Z,25.50
2018-11-26T22:25:51.972Z,24.57
2018-11-26T22:28:21.213Z,23.73
2018-11-26T22:30:50.249Z,24.23
2018-11-26T22:33:19.345Z,23.83
2018-11-26T22:35:48.472Z,24.50
2018-11-26T22:38:17.774Z,25.20
2018-11-26T22:40:46.436Z,24.13
2018-11-26T22:43:15.027Z,24.70
2018-11-26T22:45:44.222Z,25.33
2018-11-26T22:48:13.681Z,25.53
2018-11-26T22:50:44.075Z,24.43
2018-11-26T22:53:12.727Z,23.43
2018-11-26T22:55:41.962Z,23.43
2018-11-26T22:58:14.612Z,23.07
2018-11-26T23:00:46.272Z,23.90
2018-11-26T23:03:17.505Z,23.37
2018-11-26T23:05:46.386Z,22.23
2018-11-26T23:08:15.057Z,23.63
2018-11-26T23:10:44.352Z,24.40
2018-11-26T23:13:13.245Z,24.37
2018-11-26T23:15:42.039Z,23.93
2018-11-26T23:18:10.930Z,22.93
2018-11-26T23:20:39.744Z,22.83
2018-11-26T23:23:08.402Z,24.13
2018-11-26T23:25:37.031Z,23.90
2018-11-26T23:28:05.718Z,24.30
2018-11-26T23:30:34.327Z,22.17
2018-11-26T23:33:05.001Z,22.30
2018-11-26T23:35:33.870Z,22.77
2018-11-26T23:38:02.577Z,25.13
2018-11-26T23:40:31.311Z,25.57
2018-11-26T23:43:00.030Z,23.10
2018-11-26T23:45:29.558Z,23.53
2018-11-26T23:47:58.279Z,23.97
2018-11-26T23:50:26.871Z,23.10
2018-11-26T23:52:55.529Z,24.27
2018-11-26T23:55:24.920Z,23.20
2018-11-26T23:57:53.654Z,23.30
